Time;durP1;ratioP1;P1;durP2;ratioP2;P2;SDS_P1;SDS_P2;PMS_P1;PMS_P2;Temp;Humidity;BMP_temperature;BMP_pressure;BME280_temperature;BME280_humidity;BME280_pressure;Samples;Min_cycle;Max_cycle;Signal;HPM_P1;HPM_P2
2023/04/28 00:01:16;;;;;;;9.65;4.68;;;6.30;99.90;;;;;;5001640;28;21608;-78
2023/04/28 00:03:42;;;;;;;11.63;5.88;;;6.20;99.90;;;;;;5003760;28;20517;-78
2023/04/28 00:06:08;;;;;;;8.90;4.57;;;6.20;99.90;;;;;;4990808;28;20800;-78
2023/04/28 00:08:34;;;;;;;12.75;5.22;;;6.20;99.90;;;;;;4990585;28;20056;-78
2023/04/28 00:11:01;;;;;;;8.20;4.85;;;6.30;99.90;;;;;;5006756;28;20062;-79
2023/04/28 00:13:26;;;;;;;11.48;5.43;;;6.20;99.90;;;;;;5018853;28;20258;-78
2023/04/28 00:15:53;;;;;;;11.40;6.07;;;6.60;99.90;;;;;;4995992;28;20043;-78
2023/04/28 00:18:19;;;;;;;14.05;5.78;;;6.20;99.90;;;;;;5003450;28;20089;-78
2023/04/28 00:20:45;;;;;;;10.02;5.55;;;6.10;99.90;;;;;;5007473;28;20042;-78
2023/04/28 00:23:11;;;;;;;9.60;4.90;;;6.10;99.90;;;;;;4998523;28;20132;-78
2023/04/28 00:25:37;;;;;;;9.93;5.50;;;6.10;99.90;;;;;;5006375;28;20291;-78
2023/04/28 00:28:02;;;;;;;10.98;5.93;;;6.10;99.90;;;;;;4992259;28;20049;-78
2023/04/28 00:30:31;;;;;;;12.80;5.65;;;6.10;99.90;;;;;;4981763;28;20133;-78
2023/04/28 00:32:57;;;;;;;8.73;5.43;;;6.10;99.90;;;;;;4990311;28;20077;-78
2023/04/28 00:35:23;;;;;;;11.13;6.20;;;6.10;99.90;;;;;;4975337;28;20069;-78
2023/04/28 00:37:48;;;;;;;12.00;6.50;;;6.10;99.90;;;;;;4997627;28;20054;-78
2023/04/28 00:40:14;;;;;;;8.82;5.38;;;6.00;99.90;;;;;;4996511;28;20050;-78
2023/04/28 00:42:40;;;;;;;9.55;5.93;;;6.10;99.90;;;;;;5006760;28;20049;-78
2023/04/28 00:45:06;;;;;;;10.45;5.68;;;6.00;99.90;;;;;;4996365;28;20500;-77
2023/04/28 00:47:36;;;;;;;11.52;5.95;;;6.10;99.90;;;;;;5004371;28;20533;-78
2023/04/28 00:50:04;;;;;;;10.77;6.00;;;6.00;99.90;;;;;;5005233;28;20913;-77
2023/04/28 00:52:31;;;;;;;11.90;6.18;;;6.00;99.90;;;;;;4996982;28;20483;-78
2023/04/28 00:54:57;;;;;;;9.60;6.15;;;5.90;99.90;;;;;;4999396;28;20052;-77
2023/04/28 00:57:22;;;;;;;10.07;6.07;;;6.20;99.90;;;;;;5007217;28;20557;-78
2023/04/28 00:59:48;;;;;;;12.98;6.93;;;5.90;99.90;;;;;;5006798;28;20045;-78
2023/04/28 01:02:18;;;;;;;9.90;6.22;;;5.90;99.90;;;;;;4994308;28;20042;-78
2023/04/28 01:04:48;;;;;;;11.38;6.30;;;5.90;99.90;;;;;;4998946;28;20096;-77
2023/04/28 01:07:14;;;;;;;10.90;6.20;;;5.90;99.90;;;;;;4973428;28;20046;-78
2023/04/28 01:09:40;;;;;;;11.48;6.50;;;5.90;99.90;;;;;;4987498;28;20488;-78
2023/04/28 01:12:06;;;;;;;11.43;6.07;;;5.90;99.90;;;;;;4993842;28;20034;-78
2023/04/28 01:14:33;;;;;;;12.57;6.60;;;5.90;99.90;;;;;;4988401;28;20333;-78
2023/04/28 01:16:58;;;;;;;10.80;6.47;;;5.90;99.90;;;;;;4989335;28;20511;-78
2023/04/28 01:19:24;;;;;;;11.55;6.60;;;5.80;99.90;;;;;;5004531;28;20055;-78
2023/04/28 01:21:50;;;;;;;12.52;6.72;;;6.00;99.90;;;;;;5005255;28;20038;-78
2023/04/28 01:24:16;;;;;;;15.35;7.10;;;5.80;99.90;;;;;;5007789;28;20570;-77
2023/04/28 01:26:42;;;;;;;12.00;6.22;;;5.80;99.90;;;;;;5009686;28;20121;-78
2023/04/28 01:29:08;;;;;;;11.02;6.82;;;5.90;99.90;;;;;;4997681;28;20403;-78
2023/04/28 01:31:33;;;;;;;11.68;6.50;;;5.80;99.90;;;;;;4981081;28;20061;-78
2023/04/28 01:33:59;;;;;;;12.88;6.78;;;5.80;99.90;;;;;;5002392;28;20073;-78
2023/04/28 01:36:26;;;;;;;13.25;6.50;;;6.00;99.90;;;;;;5006641;28;20042;-79
2023/04/28 01:38:52;;;;;;;15.55;7.30;;;5.70;99.90;;;;;;5008315;28;20780;-78
2023/04/28 01:41:17;;;;;;;11.90;6.65;;;5.70;99.90;;;;;;4996098;28;20166;-79
2023/04/28 01:43:43;;;;;;;11.15;6.18;;;5.70;99.90;;;;;;4987241;28;20064;-78
2023/04/28 01:46:09;;;;;;;11.85;6.53;;;5.60;99.90;;;;;;5006709;28;20141;-78
2023/04/28 01:48:35;;;;;;;12.10;6.75;;;5.60;99.90;;;;;;5001413;28;20142;-78
2023/04/28 01:51:01;;;;;;;10.75;6.88;;;5.60;99.90;;;;;;4981744;28;20085;-79
2023/04/28 01:53:26;;;;;;;11.65;6.45;;;5.60;99.90;;;;;;4989937;28;20135;-78
2023/04/28 01:55:53;;;;;;;12.57;7.22;;;6.20;99.90;;;;;;5004480;28;20107;-78
2023/04/28 01:58:18;;;;;;;14.25;6.65;;;5.60;99.90;;;;;;5003013;28;20100;-78
2023/04/28 02:00:45;;;;;;;15.48;7.13;;;5.60;99.90;;;;;;4986418;28;20050;-77
2023/04/28 02:03:11;;;;;;;13.98;7.88;;;6.30;99.90;;;;;;4993856;28;21147;-76
2023/04/28 02:05:36;;;;;;;16.38;8.38;;;5.60;99.90;;;;;;4998368;28;20046;-77
2023/04/28 02:08:02;;;;;;;15.27;7.85;;;6.00;99.90;;;;;;5004340;28;20214;-78
2023/04/28 02:10:28;;;;;;;15.30;8.15;;;5.50;99.90;;;;;;4998680;28;20120;-77
2023/04/28 02:12:54;;;;;;;14.27;8.15;;;5.60;99.90;;;;;;5006804;28;20072;-77
2023/04/28 02:15:20;;;;;;;13.98;8.35;;;6.00;99.90;;;;;;4976871;28;20133;-78
2023/04/28 02:17:46;;;;;;;17.30;9.25;;;6.20;99.90;;;;;;4989788;28;20045;-77
2023/04/28 02:20:13;;;;;;;15.68;9.55;;;5.60;99.90;;;;;;4999871;28;20053;-77
2023/04/28 02:22:39;;;;;;;18.50;9.43;;;5.60;99.90;;;;;;4988202;28;20068;-77
2023/04/28 02:25:06;;;;;;;17.17;10.70;;;5.60;99.90;;;;;;5004748;28;20041;-77
2023/04/28 02:27:32;;;;;;;18.88;10.55;;;5.60;99.90;;;;;;5005003;28;20060;-78
2023/04/28 02:29:57;;;;;;;22.88;12.45;;;5.60;99.90;;;;;;4974349;28;20129;-78
2023/04/28 02:32:23;;;;;;;22.27;11.10;;;5.60;99.90;;;;;;4985131;28;20430;-77
2023/04/28 02:34:55;;;;;;;17.88;10.90;;;5.60;99.90;;;;;;5002552;28;20046;-77
2023/04/28 02:37:21;;;;;;;18.25;10.93;;;5.60;99.90;;;;;;5004914;28;20415;-77
2023/04/28 02:39:46;;;;;;;20.13;11.55;;;5.60;99.90;;;;;;5001189;28;20065;-75
2023/04/28 02:42:13;;;;;;;19.67;11.05;;;5.60;99.90;;;;;;5005365;28;20041;-76
2023/04/28 02:44:38;;;;;;;21.13;12.32;;;5.60;99.90;;;;;;4983183;28;20056;-76
2023/04/28 02:47:04;;;;;;;19.73;11.38;;;5.60;99.90;;;;;;5005736;28;20046;-77
2023/04/28 02:49:30;;;;;;;19.27;12.15;;;5.60;99.90;;;;;;4993363;28;20042;-69
2023/04/28 02:51:56;;;;;;;21.67;12.07;;;6.30;99.90;;;;;;4997857;28;20138;-69
2023/04/28 02:54:27;;;;;;;21.92;12.82;;;5.60;99.90;;;;;;4999687;28;20069;-70
2023/04/28 02:56:54;;;;;;;18.73;11.85;;;5.60;99.90;;;;;;4988289;28;20054;-69
2023/04/28 02:59:21;;;;;;;24.02;13.07;;;5.60;99.90;;;;;;4991267;28;20554;-69
2023/04/28 03:01:47;;;;;;;23.88;13.38;;;5.60;99.90;;;;;;4987760;28;20389;-69
2023/04/28 03:04:14;;;;;;;24.75;13.15;;;5.60;99.90;;;;;;5003388;28;20052;-68
2023/04/28 03:06:40;;;;;;;21.20;12.55;;;5.60;99.90;;;;;;4986119;28;20119;-69
2023/04/28 03:09:06;;;;;;;24.73;13.13;;;5.60;99.90;;;;;;5000408;28;20458;-69
2023/04/28 03:11:32;;;;;;;26.58;13.65;;;5.60;99.90;;;;;;4994789;28;20577;-69
2023/04/28 03:13:57;;;;;;;23.88;12.57;;;5.80;99.90;;;;;;4989854;28;20093;-69
2023/04/28 03:16:23;;;;;;;25.50;14.70;;;5.60;99.90;;;;;;4996108;28;20081;-68
2023/04/28 03:18:49;;;;;;;24.23;14.93;;;5.80;99.90;;;;;;4999975;28;20062;-69
2023/04/28 03:21:14;;;;;;;28.75;13.68;;;5.70;99.90;;;;;;4988530;28;20046;-69
2023/04/28 03:23:40;;;;;;;26.48;14.98;;;5.70;99.90;;;;;;4993787;28;20121;-69
2023/04/28 03:26:06;;;;;;;28.20;14.60;;;5.70;99.90;;;;;;4985948;28;20081;-69
2023/04/28 03:28:32;;;;;;;24.75;14.73;;;6.00;99.90;;;;;;4999273;28;20143;-69
2023/04/28 03:31:01;;;;;;;27.80;15.50;;;6.50;99.90;;;;;;4984946;28;20713;-69
2023/04/28 03:33:27;;;;;;;31.92;17.13;;;5.70;99.90;;;;;;4992526;28;20052;-69
2023/04/28 03:35:53;;;;;;;30.70;15.65;;;5.80;99.90;;;;;;5003078;28;20038;-69
2023/04/28 03:38:19;;;;;;;27.02;15.43;;;5.80;99.90;;;;;;4985378;28;20149;-70
2023/04/28 03:40:45;;;;;;;25.23;15.10;;;5.80;99.90;;;;;;5004577;28;20053;-69
2023/04/28 03:43:11;;;;;;;25.95;15.88;;;5.70;99.90;;;;;;4991523;28;20042;-69
2023/04/28 03:45:37;;;;;;;25.95;15.48;;;5.80;99.90;;;;;;5005959;28;20045;-69
2023/04/28 03:48:03;;;;;;;28.08;15.07;;;5.80;99.90;;;;;;5007546;28;20450;-76
2023/04/28 03:50:29;;;;;;;28.80;15.40;;;5.80;99.90;;;;;;5006336;28;20046;-76
2023/04/28 03:52:54;;;;;;;28.70;16.40;;;5.80;99.90;;;;;;5008115;28;20554;-77
2023/04/28 03:55:20;;;;;;;28.40;16.08;;;5.80;99.90;;;;;;5004787;28;20038;-77
2023/04/28 03:57:46;;;;;;;31.17;17.02;;;5.90;99.90;;;;;;4980036;28;20132;-77
2023/04/28 04:00:15;;;;;;;28.70;16.33;;;5.80;99.90;;;;;;4998381;28;20078;-77
2023/04/28 04:02:41;;;;;;;30.77;15.82;;;5.80;99.90;;;;;;5004903;28;20712;-76
2023/04/28 04:05:08;;;;;;;28.30;16.40;;;5.80;99.90;;;;;;5006558;28;20038;-76
2023/04/28 04:07:34;;;;;;;29.17;15.80;;;5.80;99.90;;;;;;5008065;28;20050;-76
2023/04/28 04:10:00;;;;;;;29.35;16.30;;;5.80;99.90;;;;;;5003431;28;20816;-77
2023/04/28 04:12:25;;;;;;;28.45;15.02;;;5.80;99.90;;;;;;4993113;28;20056;-77
2023/04/28 04:14:51;;;;;;;28.17;15.50;;;5.80;99.90;;;;;;5003347;28;20573;-76
2023/04/28 04:17:17;;;;;;;24.50;14.70;;;5.90;99.90;;;;;;5007736;28;20049;-77
2023/04/28 04:19:45;;;;;;;26.02;15.75;;;5.80;99.90;;;;;;5006383;28;20533;-76
2023/04/28 04:22:11;;;;;;;28.42;16.35;;;5.80;99.90;;;;;;5007182;28;20050;-76
2023/04/28 04:24:37;;;;;;;31.08;16.33;;;5.80;99.90;;;;;;4998175;28;20753;-77
2023/04/28 04:27:02;;;;;;;27.42;15.88;;;5.80;99.90;;;;;;4999996;28;20518;-77
2023/04/28 04:29:28;;;;;;;26.17;15.57;;;5.80;99.90;;;;;;5001788;28;20081;-77
2023/04/28 04:31:54;;;;;;;28.73;14.52;;;5.80;99.90;;;;;;5001013;28;20414;-77
2023/04/28 04:34:19;;;;;;;30.02;15.60;;;5.90;99.90;;;;;;5006678;28;20046;-77
2023/04/28 04:36:45;;;;;;;27.35;14.77;;;5.80;99.90;;;;;;5005603;28;20049;-77
2023/04/28 04:39:12;;;;;;;33.83;15.38;;;5.80;99.90;;;;;;5003682;28;20053;-77
2023/04/28 04:41:38;;;;;;;30.15;14.95;;;5.80;99.90;;;;;;5004298;28;20052;-77
2023/04/28 04:44:04;;;;;;;27.30;15.52;;;5.80;99.90;;;;;;5006087;28;20127;-77
2023/04/28 04:46:30;;;;;;;28.88;15.02;;;5.90;99.90;;;;;;5003797;28;20144;-77
2023/04/28 04:48:56;;;;;;;23.98;13.82;;;5.80;99.90;;;;;;5003078;28;20048;-77
2023/04/28 04:51:22;;;;;;;26.80;14.30;;;5.80;99.90;;;;;;5002753;28;20447;-77
2023/04/28 04:53:47;;;;;;;24.42;14.13;;;5.80;99.90;;;;;;5002909;28;20132;-78
2023/04/28 04:56:13;;;;;;;25.40;14.20;;;5.80;99.90;;;;;;4996637;28;20086;-76
2023/04/28 04:58:41;;;;;;;26.65;14.75;;;5.80;99.90;;;;;;4996732;28;20049;-77
2023/04/28 05:01:08;;;;;;;30.02;15.32;;;5.80;99.90;;;;;;5000969;28;20474;-77
2023/04/28 05:03:33;;;;;;;28.50;14.55;;;5.80;99.90;;;;;;5006003;28;20449;-78
2023/04/28 05:06:00;;;;;;;28.50;15.32;;;5.90;99.90;;;;;;4998652;28;20046;-77
2023/04/28 05:08:26;;;;;;;29.83;14.18;;;5.90;99.90;;;;;;4995122;28;20056;-77
2023/04/28 05:10:51;;;;;;;28.02;14.85;;;5.90;99.90;;;;;;4989973;28;20675;-77
2023/04/28 05:13:17;;;;;;;27.90;14.30;;;5.90;99.90;;;;;;5007523;28;20042;-77
2023/04/28 05:15:43;;;;;;;23.85;15.18;;;5.80;99.90;;;;;;5007681;28;20045;-77
2023/04/28 05:18:10;;;;;;;24.88;13.25;;;5.90;99.90;;;;;;5004436;28;20125;-77
2023/04/28 05:20:36;;;;;;;20.20;12.70;;;5.90;99.90;;;;;;4983077;28;20053;-78
2023/04/28 05:23:02;;;;;;;28.50;14.32;;;5.90;99.90;;;;;;4998391;28;20046;-77
2023/04/28 05:25:28;;;;;;;20.98;13.10;;;6.10;99.90;;;;;;4986944;28;20041;-77
2023/04/28 05:27:54;;;;;;;28.00;14.40;;;6.10;99.90;;;;;;5006588;28;20077;-77
2023/04/28 05:30:20;;;;;;;25.75;13.52;;;6.00;99.90;;;;;;4985415;28;20054;-77
2023/04/28 05:32:46;;;;;;;22.70;14.32;;;5.90;99.90;;;;;;4979825;28;20069;-78
2023/04/28 05:35:12;;;;;;;24.58;14.55;;;5.90;99.90;;;;;;4991824;28;21062;-78
2023/04/28 05:37:38;;;;;;;24.60;13.13;;;6.00;99.90;;;;;;4986692;28;20107;-77
2023/04/28 05:40:05;;;;;;;26.10;14.55;;;6.00;99.90;;;;;;5003876;28;20046;-77
2023/04/28 05:42:31;;;;;;;26.60;14.75;;;6.00;99.90;;;;;;4993196;28;20045;-77
2023/04/28 05:44:56;;;;;;;21.20;12.73;;;6.10;99.90;;;;;;5004024;28;20522;-78
2023/04/28 05:47:22;;;;;;;23.80;13.10;;;6.00;99.90;;;;;;5002371;28;20442;-77
2023/04/28 05:49:47;;;;;;;22.52;13.18;;;6.10;99.90;;;;;;5004099;28;20503;-77
2023/04/28 05:52:13;;;;;;;22.50;13.43;;;6.10;99.90;;;;;;4988343;28;20671;-77
2023/04/28 05:54:39;;;;;;;22.88;12.73;;;6.10;99.90;;;;;;5004687;28;20677;-77
2023/04/28 05:57:05;;;;;;;27.60;12.57;;;6.10;99.90;;;;;;4974440;28;20124;-78
2023/04/28 05:59:31;;;;;;;20.80;11.90;;;6.10;99.90;;;;;;5002262;28;20651;-77
2023/04/28 06:01:57;;;;;;;24.35;11.85;;;6.10;99.90;;;;;;5002861;28;20919;-77
2023/04/28 06:04:23;;;;;;;19.92;11.32;;;6.10;99.90;;;;;;4987511;28;20506;-77
2023/04/28 06:06:49;;;;;;;23.45;12.20;;;6.10;99.90;;;;;;4991448;28;20100;-77
2023/04/28 06:09:15;;;;;;;22.35;12.45;;;6.20;99.90;;;;;;4997761;28;20045;-77
2023/04/28 06:11:41;;;;;;;21.88;12.48;;;6.20;99.90;;;;;;4981672;28;20518;-77
2023/04/28 06:14:06;;;;;;;19.92;11.50;;;6.20;99.90;;;;;;5000534;28;20042;-77
2023/04/28 06:16:32;;;;;;;23.20;11.82;;;6.60;99.90;;;;;;4985051;28;20541;-79
2023/04/28 06:18:58;;;;;;;21.63;11.35;;;6.20;99.90;;;;;;5002994;28;20057;-76
2023/04/28 06:21:24;;;;;;;18.10;11.55;;;6.20;99.90;;;;;;5001236;28;20037;-77
2023/04/28 06:23:50;;;;;;;21.30;12.25;;;6.20;99.90;;;;;;4986046;28;20045;-77
2023/04/28 06:26:15;;;;;;;21.35;12.23;;;6.20;99.90;;;;;;4985726;28;20127;-77
2023/04/28 06:28:41;;;;;;;20.65;11.63;;;6.30;99.90;;;;;;5001473;28;20508;-77
2023/04/28 06:31:08;;;;;;;21.05;11.75;;;6.20;99.90;;;;;;5000246;28;20050;-78
2023/04/28 06:33:33;;;;;;;20.92;11.98;;;6.30;99.90;;;;;;4999632;28;20076;-77
2023/04/28 06:35:59;;;;;;;20.85;11.85;;;6.30;99.90;;;;;;5001201;28;20659;-78
2023/04/28 06:38:25;;;;;;;20.67;11.68;;;6.40;99.90;;;;;;5002015;28;20067;-77
2023/04/28 06:40:51;;;;;;;21.80;11.52;;;7.10;99.90;;;;;;4999673;28;20120;-78
2023/04/28 06:43:16;;;;;;;20.83;11.52;;;6.40;99.90;;;;;;5002284;28;20053;-78
2023/04/28 06:45:42;;;;;;;19.50;11.90;;;6.50;99.90;;;;;;4998076;28;20045;-78
2023/04/28 06:48:08;;;;;;;22.30;11.95;;;6.60;99.90;;;;;;4996797;28;21046;-78
2023/04/28 06:50:36;;;;;;;16.60;11.05;;;6.50;99.90;;;;;;4987056;28;20404;-78
2023/04/28 06:53:01;;;;;;;19.50;12.13;;;6.60;99.90;;;;;;4987833;28;20462;-78
2023/04/28 06:55:27;;;;;;;18.02;10.88;;;6.60;99.90;;;;;;4989172;28;20050;-78
2023/04/28 06:57:53;;;;;;;18.77;10.40;;;6.60;99.90;;;;;;4989370;28;20053;-78
2023/04/28 07:00:19;;;;;;;21.95;10.98;;;6.70;99.90;;;;;;4976196;28;20050;-78
2023/04/28 07:02:44;;;;;;;18.60;11.13;;;6.70;99.90;;;;;;4975583;28;20053;-79
2023/04/28 07:05:10;;;;;;;18.88;11.80;;;6.70;99.90;;;;;;4989553;28;20054;-78
2023/04/28 07:07:37;;;;;;;18.83;11.18;;;6.80;99.90;;;;;;4973864;28;20050;-77
2023/04/28 07:10:04;;;;;;;20.45;11.90;;;6.80;99.90;;;;;;4979710;28;20056;-78
2023/04/28 07:12:29;;;;;;;20.65;11.77;;;6.90;99.90;;;;;;4993993;28;20634;-78
2023/04/28 07:14:55;;;;;;;20.50;11.73;;;6.90;99.90;;;;;;4980325;28;20129;-78
2023/04/28 07:17:21;;;;;;;18.98;10.65;;;7.00;99.90;;;;;;5007051;28;20380;-77
2023/04/28 07:19:49;;;;;;;18.10;10.95;;;7.00;99.90;;;;;;4992263;28;20577;-77
2023/04/28 07:22:15;;;;;;;18.92;11.32;;;7.00;99.90;;;;;;4980521;28;20411;-77
2023/04/28 07:24:41;;;;;;;17.05;10.85;;;7.10;99.90;;;;;;4979400;28;20081;-78
2023/04/28 07:27:07;;;;;;;18.65;10.52;;;7.10;99.90;;;;;;4976368;28;20129;-78
2023/04/28 07:29:34;;;;;;;18.52;10.40;;;7.10;99.90;;;;;;4995720;28;20053;-78
2023/04/28 07:32:07;;;;;;;20.33;10.38;;;7.10;99.90;;;;;;4974724;28;20046;-78
2023/04/28 07:34:34;;;;;;;17.08;10.38;;;7.20;99.90;;;;;;4975829;28;20054;-78
2023/04/28 07:37:01;;;;;;;20.38;11.27;;;7.80;99.90;;;;;;4992067;28;20132;-78
2023/04/28 07:39:27;;;;;;;19.90;9.75;;;7.20;99.90;;;;;;4979455;28;20101;-78
2023/04/28 07:41:53;;;;;;;19.77;10.52;;;7.20;99.90;;;;;;4993327;28;20049;-78
2023/04/28 07:44:19;;;;;;;20.35;10.70;;;7.30;99.90;;;;;;5009251;28;20041;-78
2023/04/28 07:46:45;;;;;;;18.42;10.23;;;7.30;99.90;;;;;;4992942;28;20435;-77
2023/04/28 07:49:10;;;;;;;20.20;10.50;;;7.70;99.90;;;;;;4991329;28;20050;-77
2023/04/28 07:51:36;;;;;;;17.83;9.35;;;7.40;99.90;;;;;;4976898;28;20647;-77
2023/04/28 07:54:02;;;;;;;17.73;10.65;;;7.50;99.90;;;;;;4973360;28;20058;-78
2023/04/28 07:56:28;;;;;;;17.52;10.20;;;7.50;99.90;;;;;;4991733;28;20046;-78
2023/04/28 07:58:55;;;;;;;16.95;10.18;;;7.50;99.90;;;;;;4979064;28;20154;-78
2023/04/28 08:01:21;;;;;;;17.98;10.82;;;8.00;99.90;;;;;;4974354;28;20054;-78
2023/04/28 08:03:47;;;;;;;18.33;10.02;;;7.60;99.90;;;;;;4993270;28;20368;-78
2023/04/28 08:06:13;;;;;;;15.82;10.25;;;7.60;99.90;;;;;;4998157;28;20152;-78
2023/04/28 08:08:39;;;;;;;17.63;9.98;;;7.60;99.90;;;;;;4986922;28;20041;-77
2023/04/28 08:11:05;;;;;;;18.42;10.20;;;7.60;99.90;;;;;;5004883;28;20073;-78
2023/04/28 08:13:32;;;;;;;18.00;10.80;;;7.70;99.90;;;;;;4990951;28;20469;-78
2023/04/28 08:16:00;;;;;;;17.75;10.85;;;7.60;99.90;;;;;;4999790;28;20414;-78
2023/04/28 08:18:27;;;;;;;16.08;10.27;;;7.60;99.90;;;;;;4999035;28;20042;-78
2023/04/28 08:20:53;;;;;;;19.13;9.93;;;7.80;99.90;;;;;;4997989;28;20080;-78
2023/04/28 08:23:19;;;;;;;17.17;11.02;;;7.60;99.90;;;;;;4998343;28;20129;-78
2023/04/28 08:25:46;;;;;;;15.20;10.18;;;7.70;99.90;;;;;;4979967;28;20099;-78
2023/04/28 08:28:12;;;;;;;18.13;10.60;;;7.70;99.90;;;;;;4994920;28;20100;-77
2023/04/28 08:30:38;;;;;;;17.85;10.02;;;7.70;99.90;;;;;;4977789;28;20042;-78
2023/04/28 08:33:04;;;;;;;17.88;11.18;;;7.70;99.90;;;;;;4980753;28;20816;-78
2023/04/28 08:35:30;;;;;;;16.98;10.88;;;7.70;99.90;;;;;;4998758;28;20687;-79
2023/04/28 08:37:55;;;;;;;18.35;11.13;;;7.70;99.90;;;;;;4997348;28;20044;-78
2023/04/28 08:40:23;;;;;;;17.70;11.57;;;7.80;99.90;;;;;;4994069;28;20076;-78
2023/04/28 08:42:49;;;;;;;19.52;11.38;;;7.70;99.90;;;;;;4978819;28;20143;-78
2023/04/28 08:45:15;;;;;;;17.95;10.85;;;7.70;99.90;;;;;;4992094;28;20346;-78
2023/04/28 08:47:46;;;;;;;20.27;11.98;;;7.70;99.90;;;;;;4993784;28;20873;-78
2023/04/28 08:50:13;;;;;;;21.60;11.82;;;7.80;99.90;;;;;;4995482;28;20053;-78
2023/04/28 08:52:40;;;;;;;16.83;11.60;;;7.80;99.90;;;;;;4995128;28;20041;-78
2023/04/28 08:55:15;;;;;;;21.23;12.23;;;8.10;99.90;;;;;;4999484;28;20414;-78
2023/04/28 08:58:01;;;;;;;19.30;11.07;;;7.90;99.90;;;;;;4996981;28;20050;-78
2023/04/28 09:00:27;;;;;;;19.13;12.02;;;8.00;99.90;;;;;;4997822;28;20064;-78
2023/04/28 09:02:53;;;;;;;18.90;11.00;;;8.10;99.90;;;;;;4997626;28;20046;-79
2023/04/28 09:05:18;;;;;;;19.95;12.05;;;8.10;99.90;;;;;;4998823;28;20127;-78
2023/04/28 09:07:45;;;;;;;20.95;12.45;;;8.20;99.90;;;;;;4996522;28;20665;-78
2023/04/28 09:10:14;;;;;;;19.10;11.20;;;8.30;99.90;;;;;;4998467;28;20837;-79
2023/04/28 09:12:40;;;;;;;16.98;11.13;;;8.30;99.90;;;;;;4997843;28;20061;-78
2023/04/28 09:15:08;;;;;;;19.25;11.18;;;8.40;99.90;;;;;;4999988;28;20818;-78
2023/04/28 09:17:48;;;;;;;18.60;11.70;;;8.40;99.90;;;;;;4997227;28;20262;-79
2023/04/28 09:20:27;;;;;;;21.10;12.25;;;8.50;99.90;;;;;;4997849;28;20124;-79
2023/04/28 09:22:54;;;;;;;19.08;11.60;;;8.50;99.90;;;;;;4981846;28;20076;-80
2023/04/28 09:25:21;;;;;;;15.77;11.15;;;8.60;99.90;;;;;;4999966;28;20048;-79
2023/04/28 09:27:48;;;;;;;21.05;11.20;;;8.70;99.90;;;;;;4998520;28;20127;-80
2023/04/28 09:30:14;;;;;;;15.30;10.95;;;8.70;99.90;;;;;;4997793;28;20053;-80
2023/04/28 09:32:40;;;;;;;20.67;11.15;;;8.70;99.90;;;;;;4999531;28;20169;-79
2023/04/28 09:35:06;;;;;;;20.00;11.65;;;8.80;99.90;;;;;;4982621;28;20056;-79
2023/04/28 09:37:33;;;;;;;20.48;10.43;;;8.80;99.90;;;;;;4996723;28;20065;-79
2023/04/28 09:40:08;;;;;;;17.33;11.52;;;8.90;99.90;;;;;;5002259;28;20395;-80
2023/04/28 09:42:39;;;;;;;18.33;10.95;;;9.00;99.90;;;;;;4983386;28;20545;-80
2023/04/28 09:45:10;;;;;;;16.35;10.45;;;9.20;99.90;;;;;;4995328;28;20129;-80
2023/04/28 09:47:40;;;;;;;19.17;10.73;;;9.40;99.90;;;;;;4999413;28;20038;-79
2023/04/28 09:50:10;;;;;;;21.47;10.73;;;9.50;99.90;;;;;;4996855;28;20053;-79
2023/04/28 09:52:36;;;;;;;17.30;11.30;;;9.60;99.90;;;;;;4998940;28;20320;-79
2023/04/28 09:55:04;;;;;;;19.63;11.20;;;9.70;99.90;;;;;;5001601;28;20054;-79
2023/04/28 09:57:32;;;;;;;19.50;10.32;;;9.70;99.90;;;;;;4996691;28;20042;-78
2023/04/28 09:59:58;;;;;;;15.90;10.25;;;9.70;99.90;;;;;;4997246;28;20432;-80
2023/04/28 10:02:25;;;;;;;15.80;10.93;;;9.80;99.90;;;;;;4999185;28;20058;-80
2023/04/28 10:04:51;;;;;;;21.13;11.75;;;9.90;99.90;;;;;;4996767;28;20095;-78
2023/04/28 10:07:19;;;;;;;17.05;10.70;;;9.90;99.90;;;;;;4996493;28;20045;-78
2023/04/28 10:09:49;;;;;;;18.48;10.98;;;9.90;99.90;;;;;;4979284;28;20084;-79
2023/04/28 10:12:19;;;;;;;19.77;10.88;;;10.00;99.90;;;;;;4991651;28;20049;-79
2023/04/28 10:14:48;;;;;;;19.05;10.77;;;10.00;99.90;;;;;;4977043;28;20057;-79
2023/04/28 10:17:16;;;;;;;19.25;10.20;;;10.10;99.90;;;;;;4994253;28;20042;-79
2023/04/28 10:19:44;;;;;;;17.92;10.75;;;10.10;99.90;;;;;;4995366;28;20046;-79
2023/04/28 10:22:56;;;;;;;17.83;10.50;;;10.20;99.90;;;;;;4995515;28;20912;-79
2023/04/28 10:25:35;;;;;;;19.88;11.05;;;10.30;99.90;;;;;;4981789;28;20046;-79
2023/04/28 10:28:06;;;;;;;16.05;10.93;;;10.40;99.90;;;;;;4979996;28;20124;-78
2023/04/28 10:30:32;;;;;;;16.95;11.98;;;10.50;99.90;;;;;;4978935;28;20056;-79
2023/04/28 10:33:11;;;;;;;18.70;11.23;;;10.60;99.90;;;;;;4996204;28;20065;-78
2023/04/28 10:35:44;;;;;;;20.45;11.43;;;10.70;99.90;;;;;;4995175;28;20155;-77
2023/04/28 10:38:15;;;;;;;16.23;10.40;;;10.80;99.90;;;;;;4994411;28;20536;-77
2023/04/28 10:40:43;;;;;;;15.05;10.55;;;10.80;99.90;;;;;;4973799;28;20052;-79
2023/04/28 10:43:30;;;;;;;20.50;10.25;;;10.80;99.90;;;;;;4998944;28;20408;-79
2023/04/28 10:45:58;;;;;;;18.15;10.50;;;10.80;99.90;;;;;;4997138;28;20050;-80
2023/04/28 10:48:36;;;;;;;17.15;11.38;;;10.80;99.90;;;;;;4998050;28;20057;-77
2023/04/28 10:51:02;;;;;;;16.67;10.73;;;10.80;99.90;;;;;;4998918;28;20041;-78
2023/04/28 10:53:51;;;;;;;20.83;11.40;;;10.80;99.90;;;;;;4982913;28;20033;-78
2023/04/28 10:56:25;;;;;;;18.63;10.63;;;11.20;99.90;;;;;;4984346;28;20054;-78
2023/04/28 10:58:55;;;;;;;16.63;10.63;;;10.90;99.90;;;;;;4977591;28;20042;-79
2023/04/28 11:01:23;;;;;;;17.95;10.77;;;10.90;99.90;;;;;;4993659;28;20065;-79
2023/04/28 11:03:52;;;;;;;17.45;10.75;;;11.00;99.90;;;;;;4989815;28;20058;-79
2023/04/28 11:06:38;;;;;;;16.83;10.50;;;11.00;99.90;;;;;;4993221;28;20070;-79
2023/04/28 11:09:13;;;;;;;18.73;10.52;;;11.00;99.90;;;;;;4993408;28;20422;-78
2023/04/28 11:12:04;;;;;;;20.92;11.50;;;11.00;99.90;;;;;;4978695;28;20042;-78
2023/04/28 11:14:35;;;;;;;16.42;10.48;;;11.00;99.90;;;;;;4999450;28;20038;-78
2023/04/28 11:17:05;;;;;;;18.27;11.60;;;11.00;99.90;;;;;;4997542;28;20132;-78
2023/04/28 11:19:40;;;;;;;16.42;11.27;;;11.00;99.90;;;;;;4997294;28;20048;-78
2023/04/28 11:22:19;;;;;;;16.58;10.90;;;11.00;99.90;;;;;;4996206;28;20042;-79
2023/04/28 11:25:01;;;;;;;21.20;11.20;;;11.00;99.90;;;;;;5000714;28;20042;-78
2023/04/28 11:27:29;;;;;;;15.98;10.95;;;11.00;99.90;;;;;;4983478;28;20637;-78
2023/04/28 11:29:55;;;;;;;17.90;11.15;;;11.10;99.90;;;;;;4995126;28;20046;-78
2023/04/28 11:32:31;;;;;;;17.05;12.20;;;11.10;99.90;;;;;;4997798;28;20052;-80
2023/04/28 11:34:57;;;;;;;19.58;11.50;;;11.10;99.90;;;;;;4997579;28;20042;-80
2023/04/28 11:37:23;;;;;;;16.38;11.18;;;11.20;99.90;;;;;;4997935;28;20049;-80
2023/04/28 11:39:52;;;;;;;18.17;10.77;;;11.30;99.90;;;;;;4994839;28;20046;-78
2023/04/28 11:42:18;;;;;;;17.77;11.15;;;11.30;99.90;;;;;;4997896;28;20034;-77
2023/04/28 11:44:53;;;;;;;15.15;10.50;;;11.30;99.90;;;;;;4999305;28;20049;-77
2023/04/28 11:47:30;;;;;;;17.42;10.40;;;11.40;99.90;;;;;;4996732;28;20099;-77
2023/04/28 11:49:56;;;;;;;18.13;11.18;;;11.40;99.90;;;;;;5001276;28;20038;-78
2023/04/28 11:52:22;;;;;;;17.45;10.63;;;11.40;99.90;;;;;;4999089;28;20647;-78
2023/04/28 11:54:54;;;;;;;15.27;10.75;;;11.40;99.90;;;;;;4983372;28;20045;-78
2023/04/28 11:57:22;;;;;;;17.83;11.07;;;11.40;99.90;;;;;;5004012;28;20045;-78
2023/04/28 11:59:48;;;;;;;17.17;10.80;;;11.40;99.90;;;;;;4987634;28;20128;-77
2023/04/28 12:02:15;;;;;;;16.95;10.82;;;11.70;99.90;;;;;;5002427;28;20050;-79
2023/04/28 12:04:43;;;;;;;17.75;10.75;;;11.50;99.90;;;;;;5004660;28;20053;-78
2023/04/28 12:07:17;;;;;;;17.83;10.70;;;11.50;99.90;;;;;;5003285;28;20078;-77
2023/04/28 12:10:07;;;;;;;15.77;11.55;;;11.50;99.90;;;;;;5002990;28;20057;-78
2023/04/28 12:12:32;;;;;;;17.20;11.00;;;11.50;99.90;;;;;;5000721;28;20682;-77
2023/04/28 12:15:00;;;;;;;15.70;10.55;;;11.50;99.90;;;;;;4999103;28;20045;-77
2023/04/28 12:17:44;;;;;;;16.02;10.95;;;11.50;99.90;;;;;;4998260;28;20545;-77
2023/04/28 12:20:31;;;;;;;20.95;11.32;;;11.60;99.90;;;;;;4981529;28;20139;-77
2023/04/28 12:22:57;;;;;;;20.27;11.95;;;11.60;99.90;;;;;;5001433;28;20172;-77
2023/04/28 12:25:23;;;;;;;18.55;13.77;;;11.60;99.90;;;;;;5003005;28;20136;-77
2023/04/28 12:28:03;;;;;;;22.65;11.93;;;11.60;99.90;;;;;;4998918;28;20046;-77
2023/04/28 12:30:31;;;;;;;19.10;11.63;;;11.60;99.90;;;;;;4982701;28;20034;-77
2023/04/28 12:32:57;;;;;;;15.80;10.35;;;11.60;99.90;;;;;;4999247;28;20054;-77
2023/04/28 12:35:24;;;;;;;17.58;11.57;;;11.60;99.90;;;;;;4999388;28;20399;-77
2023/04/28 12:37:51;;;;;;;15.20;10.38;;;11.70;99.90;;;;;;4999159;28;20060;-78
2023/04/28 12:40:17;;;;;;;14.85;9.98;;;11.70;99.90;;;;;;5000260;28;20034;-77